Terminal Aerodrome Forecast
Issued by NWS

Home | Current Version | Previous Version | Text Only | Print | Product List | Glossary On
Versions: 1 2 3 4 5 6 7 8 9 10 11 12 13 14 15 16 17
000
FTUS42 KJAX 011758
TAFCRG
TAF
KCRG 011758Z 0118/0218 20012G18KT P6SM SCT050 BKN250
     FM012300 18011KT P6SM SCT040 SCT250
     FM020600 22006KT P6SM SCT025 BKN100
     FM020900 24006KT P6SM BKN007 OVC015
     FM021400 33010KT P6SM VCSH SCT007 OVC015=

USA.gov is the U.S. government's official web portal to all federal, state and local government web resources and services.